Time;durP1;ratioP1;P1;durP2;ratioP2;P2;SDS_P1;SDS_P2;PMS_P1;PMS_P2;Temp;Humidity;BMP_temperature;BMP_pressure;BME280_temperature;BME280_humidity;BME280_pressure;Samples;Min_cycle;Max_cycle;Signal;HPM_P1;HPM_P2
2021/01/24 00:00:16;;;;;;;9.40;4.82;;;5.50;89.60;;;;;;5054604;28;20029;-75
2021/01/24 00:02:41;;;;;;;10.57;4.65;;;5.40;89.60;;;;;;5053980;28;20025;-75
2021/01/24 00:05:07;;;;;;;9.20;4.07;;;5.40;89.60;;;;;;5036700;28;20021;-75
2021/01/24 00:07:33;;;;;;;9.23;4.00;;;5.40;89.60;;;;;;5053824;28;20102;-74
2021/01/24 00:09:59;;;;;;;8.90;4.32;;;5.40;89.70;;;;;;5054476;28;20028;-73
2021/01/24 00:12:24;;;;;;;11.75;4.75;;;5.40;89.60;;;;;;5054521;28;20025;-73
2021/01/24 00:14:50;;;;;;;10.45;4.68;;;5.40;89.70;;;;;;5053491;28;20025;-74
2021/01/24 00:17:15;;;;;;;12.25;5.07;;;5.40;89.70;;;;;;5054345;28;20440;-73
2021/01/24 00:19:41;;;;;;;11.52;5.03;;;5.40;89.80;;;;;;5053317;28;20108;-74
2021/01/24 00:22:07;;;;;;;13.13;4.95;;;5.40;89.80;;;;;;5054170;28;20461;-74
2021/01/24 00:24:32;;;;;;;12.32;5.00;;;5.40;89.80;;;;;;5036277;28;20032;-74
2021/01/24 00:26:58;;;;;;;10.50;4.60;;;5.40;89.80;;;;;;5053254;28;20414;-74
2021/01/24 00:29:24;;;;;;;12.90;5.90;;;5.30;89.70;;;;;;5036216;28;20155;-73
2021/01/24 00:31:49;;;;;;;13.40;4.97;;;5.30;89.80;;;;;;5053142;28;20025;-73
2021/01/24 00:34:15;;;;;;;12.23;5.43;;;5.30;89.90;;;;;;5036208;28;20322;-73
2021/01/24 00:36:40;;;;;;;10.70;4.32;;;5.30;89.90;;;;;;5047628;28;20071;-74
2021/01/24 00:39:06;;;;;;;14.93;5.28;;;5.20;89.90;;;;;;5074109;28;20029;-73
2021/01/24 00:41:32;;;;;;;11.00;4.85;;;5.20;90.00;;;;;;5073808;28;20036;-74
2021/01/24 00:43:58;;;;;;;14.93;4.82;;;5.20;90.00;;;;;;5071937;28;20017;-74
2021/01/24 00:46:24;;;;;;;16.08;5.15;;;5.20;90.10;;;;;;5073011;28;20389;-74
2021/01/24 00:48:50;;;;;;;13.75;5.35;;;5.10;90.10;;;;;;5073152;28;20028;-73
2021/01/24 00:51:15;;;;;;;14.32;4.75;;;5.10;90.20;;;;;;5072485;28;20024;-74
2021/01/24 00:53:41;;;;;;;12.00;5.18;;;5.10;90.20;;;;;;5073086;28;20114;-74
2021/01/24 00:56:07;;;;;;;11.13;5.43;;;5.10;90.20;;;;;;5073617;28;20031;-74
2021/01/24 00:58:33;;;;;;;12.07;4.60;;;5.10;90.20;;;;;;5073603;28;20029;-73
2021/01/24 01:00:58;;;;;;;8.65;4.10;;;5.10;90.10;;;;;;5071461;28;20020;-73
2021/01/24 01:03:24;;;;;;;10.98;4.30;;;5.10;90.20;;;;;;5072142;28;20020;-74
2021/01/24 01:05:50;;;;;;;10.43;4.20;;;5.00;90.20;;;;;;5072565;28;20078;-74
2021/01/24 01:08:15;;;;;;;9.88;4.03;;;5.00;90.30;;;;;;5073539;28;20028;-72
2021/01/24 01:10:41;;;;;;;10.10;4.00;;;5.00;90.40;;;;;;5072853;28;20028;-75
2021/01/24 01:13:08;;;;;;;8.50;3.95;;;4.90;90.40;;;;;;5073293;28;20056;-74
2021/01/24 01:15:33;;;;;;;9.50;3.97;;;4.90;90.40;;;;;;5073325;28;20093;-72
2021/01/24 01:17:59;;;;;;;10.25;3.40;;;4.90;90.40;;;;;;5071057;28;20460;-73
2021/01/24 01:20:25;;;;;;;8.52;3.78;;;4.90;90.50;;;;;;5073094;28;20449;-73
2021/01/24 01:22:51;;;;;;;8.75;4.00;;;4.80;90.60;;;;;;5072502;28;20021;-73
2021/01/24 01:25:17;;;;;;;10.45;4.53;;;4.80;90.70;;;;;;5071695;28;20379;-73
2021/01/24 01:27:43;;;;;;;7.50;3.75;;;4.70;90.80;;;;;;5072340;28;20029;-74
2021/01/24 01:30:09;;;;;;;10.80;4.03;;;4.70;90.80;;;;;;5072883;28;20025;-73
2021/01/24 01:32:35;;;;;;;9.43;4.20;;;4.70;90.90;;;;;;5072670;28;20464;-73
2021/01/24 01:35:03;;;;;;;10.20;4.82;;;4.70;90.90;;;;;;5071917;28;20016;-73
2021/01/24 01:37:28;;;;;;;10.93;3.42;;;4.60;90.80;;;;;;5071400;28;20056;-73
2021/01/24 01:39:54;;;;;;;9.13;3.67;;;4.70;90.80;;;;;;5072097;28;20023;-73
2021/01/24 01:42:20;;;;;;;9.77;3.83;;;4.70;90.80;;;;;;5073034;28;20476;-73
2021/01/24 01:44:46;;;;;;;11.40;4.18;;;4.70;90.90;;;;;;5070829;28;20532;-73
2021/01/24 01:47:22;;;;;;;10.38;3.90;;;4.70;90.90;;;;;;5071325;28;20033;-73
2021/01/24 01:49:49;;;;;;;11.10;4.00;;;4.70;90.90;;;;;;5071962;28;20112;-73
2021/01/24 01:52:15;;;;;;;10.25;4.20;;;4.70;90.90;;;;;;5072535;28;20099;-73
2021/01/24 01:54:47;;;;;;;6.30;2.80;;;4.70;90.90;;;;;;5070771;28;20052;-74
2021/01/24 01:57:13;;;;;;;9.95;3.60;;;4.70;90.80;;;;;;5071611;28;20025;-73
2021/01/24 01:59:39;;;;;;;5.97;3.22;;;4.70;90.80;;;;;;5072481;28;20077;-73
2021/01/24 02:02:15;;;;;;;10.13;3.08;;;4.70;90.90;;;;;;5070397;28;20095;-73
2021/01/24 02:04:57;;;;;;;7.90;3.25;;;4.70;90.90;;;;;;5072292;28;20349;-73
2021/01/24 02:07:36;;;;;;;9.57;3.20;;;4.70;90.90;;;;;;5070871;28;20115;-73
2021/01/24 02:10:15;;;;;;;10.82;3.97;;;4.70;91.00;;;;;;5071685;28;20233;-73
2021/01/24 02:13:10;;;;;;;6.78;3.33;;;4.60;91.10;;;;;;5070916;28;20021;-73
2021/01/24 02:15:38;;;;;;;11.45;3.70;;;4.60;91.10;;;;;;5071905;28;20475;-73
2021/01/24 02:18:07;;;;;;;8.50;3.15;;;4.60;91.10;;;;;;5070252;28;20078;-73
2021/01/24 02:20:54;;;;;;;6.93;3.10;;;4.60;91.10;;;;;;5070756;28;20032;-73
2021/01/24 02:23:22;;;;;;;6.45;2.70;;;4.60;91.10;;;;;;5072058;28;20079;-72
2021/01/24 02:26:21;;;;;;;7.70;2.35;;;4.50;91.20;;;;;;5071180;28;20077;-72
2021/01/24 02:29:16;;;;;;;7.07;3.20;;;4.50;91.20;;;;;;5071402;28;20456;-73
2021/01/24 02:31:43;;;;;;;7.57;3.03;;;4.50;91.30;;;;;;5072090;28;20437;-72
2021/01/24 02:34:10;;;;;;;7.25;2.67;;;4.40;91.30;;;;;;5070638;28;20127;-73
2021/01/24 02:36:38;;;;;;;7.00;3.10;;;4.50;91.30;;;;;;5066347;28;20147;-73
2021/01/24 02:39:05;;;;;;;6.03;2.88;;;4.50;91.30;;;;;;5033388;28;20549;-73
2021/01/24 02:41:31;;;;;;;6.15;2.13;;;4.40;91.20;;;;;;5051870;28;20021;-73
2021/01/24 02:43:58;;;;;;;7.30;2.63;;;4.40;91.30;;;;;;5051163;28;20527;-73
2021/01/24 02:46:25;;;;;;;4.88;1.92;;;4.40;91.30;;;;;;5051498;28;20052;-73
2021/01/24 02:48:53;;;;;;;6.57;2.08;;;4.40;91.40;;;;;;5051180;28;20100;-73
2021/01/24 02:51:19;;;;;;;6.65;2.33;;;4.40;91.40;;;;;;5033813;28;20017;-75
2021/01/24 02:53:49;;;;;;;6.20;2.35;;;4.40;91.40;;;;;;5050799;28;20392;-75
2021/01/24 02:56:17;;;;;;;5.40;2.25;;;4.40;91.40;;;;;;5051600;28;20025;-73
2021/01/24 02:58:43;;;;;;;7.53;2.20;;;4.50;91.40;;;;;;5033786;28;20052;-73
2021/01/24 03:01:09;;;;;;;5.82;1.90;;;4.50;91.30;;;;;;5033107;28;20017;-74
2021/01/24 03:03:35;;;;;;;7.38;2.83;;;4.50;91.50;;;;;;5051604;28;20033;-73
2021/01/24 03:06:00;;;;;;;6.07;1.80;;;4.60;91.20;;;;;;5050906;28;20036;-72
2021/01/24 03:08:26;;;;;;;4.53;1.90;;;4.60;91.10;;;;;;5052744;28;20033;-73
2021/01/24 03:10:52;;;;;;;5.22;2.08;;;4.70;91.10;;;;;;5055227;28;20029;-73
2021/01/24 03:13:23;;;;;;;4.13;2.05;;;4.70;91.10;;;;;;5055690;28;20028;-73
2021/01/24 03:15:51;;;;;;;9.05;3.05;;;4.70;91.40;;;;;;5054673;28;20170;-74
2021/01/24 03:18:20;;;;;;;6.32;2.25;;;4.60;91.20;;;;;;5037523;28;20384;-74
2021/01/24 03:20:50;;;;;;;4.68;1.80;;;4.60;91.20;;;;;;5055274;28;20036;-73
2021/01/24 03:23:16;;;;;;;4.43;2.05;;;4.60;91.20;;;;;;5055195;28;20026;-73
2021/01/24 03:25:43;;;;;;;5.47;2.58;;;4.70;91.20;;;;;;5037427;28;20043;-73
2021/01/24 03:28:10;;;;;;;5.22;1.70;;;4.70;91.10;;;;;;5054700;28;20115;-73
2021/01/24 03:30:36;;;;;;;4.50;2.13;;;4.70;91.10;;;;;;5037309;28;20388;-73
2021/01/24 03:33:02;;;;;;;3.42;2.05;;;4.70;91.10;;;;;;5036688;28;20023;-73
2021/01/24 03:35:28;;;;;;;6.05;2.40;;;4.60;91.10;;;;;;5055244;28;20017;-73
2021/01/24 03:37:54;;;;;;;5.57;2.10;;;4.60;91.20;;;;;;5054775;28;20366;-73
2021/01/24 03:40:20;;;;;;;5.65;2.25;;;4.60;91.20;;;;;;5055111;28;20021;-73
2021/01/24 03:42:46;;;;;;;7.72;2.50;;;4.70;91.20;;;;;;5054804;28;20025;-73
2021/01/24 03:45:11;;;;;;;8.15;2.55;;;4.70;91.10;;;;;;5054397;28;20036;-73
2021/01/24 03:47:38;;;;;;;7.03;2.78;;;4.70;91.10;;;;;;5054932;28;20102;-73
2021/01/24 03:50:05;;;;;;;10.07;2.85;;;4.70;91.20;;;;;;5054321;28;20080;-74
2021/01/24 03:52:31;;;;;;;7.63;3.40;;;4.70;91.20;;;;;;5054843;28;20056;-74
2021/01/24 03:54:56;;;;;;;6.57;2.63;;;4.70;91.20;;;;;;5036346;28;20059;-73
2021/01/24 03:57:23;;;;;;;10.35;3.13;;;4.70;91.20;;;;;;5054650;28;20404;-72
2021/01/24 03:59:51;;;;;;;7.70;3.50;;;4.70;91.20;;;;;;5036441;28;20108;-73
2021/01/24 04:02:21;;;;;;;7.90;3.13;;;4.70;91.20;;;;;;5054723;28;20473;-73
2021/01/24 04:04:47;;;;;;;6.72;3.20;;;4.60;91.20;;;;;;5054632;28;20031;-73
2021/01/24 04:07:14;;;;;;;6.82;2.55;;;4.70;91.20;;;;;;5053647;28;20025;-73
2021/01/24 04:09:39;;;;;;;9.02;3.03;;;4.70;91.20;;;;;;5054264;28;20017;-73
2021/01/24 04:12:06;;;;;;;10.63;3.53;;;4.70;91.10;;;;;;5035889;28;20079;-73
2021/01/24 04:14:31;;;;;;;9.52;3.28;;;4.70;91.10;;;;;;5054730;28;20032;-73
2021/01/24 04:16:57;;;;;;;8.85;3.28;;;4.70;91.20;;;;;;5053413;28;20044;-73
2021/01/24 04:19:23;;;;;;;7.00;2.97;;;4.70;91.20;;;;;;5054179;28;20016;-73
2021/01/24 04:21:48;;;;;;;7.53;3.22;;;4.60;91.20;;;;;;5035657;28;20025;-73
2021/01/24 04:24:14;;;;;;;9.88;3.95;;;4.60;91.20;;;;;;5053212;28;20040;-73
2021/01/24 04:26:40;;;;;;;7.07;2.67;;;4.60;91.30;;;;;;5053974;28;20195;-73
2021/01/24 04:29:05;;;;;;;8.60;2.92;;;4.60;91.30;;;;;;5053543;28;20078;-74
2021/01/24 04:31:31;;;;;;;6.97;2.88;;;4.60;91.30;;;;;;5054128;28;20021;-73
2021/01/24 04:33:56;;;;;;;9.32;3.22;;;4.60;91.30;;;;;;5053395;28;20425;-73
2021/01/24 04:36:22;;;;;;;11.07;3.47;;;4.60;91.30;;;;;;5035884;28;20481;-74
2021/01/24 04:38:48;;;;;;;8.05;2.70;;;4.60;91.30;;;;;;5053869;28;20032;-73
2021/01/24 04:41:14;;;;;;;7.03;2.75;;;4.60;91.40;;;;;;5053261;28;20518;-73
2021/01/24 04:43:41;;;;;;;7.10;2.88;;;4.50;91.40;;;;;;5054102;28;20021;-73
2021/01/24 04:46:10;;;;;;;10.63;3.50;;;4.50;91.40;;;;;;5034941;28;20041;-73
2021/01/24 04:48:36;;;;;;;10.45;3.60;;;4.60;91.40;;;;;;5053509;28;20021;-73
2021/01/24 04:51:02;;;;;;;5.70;3.08;;;4.50;91.40;;;;;;5035110;28;20033;-73
2021/01/24 04:53:29;;;;;;;8.40;3.00;;;4.50;91.30;;;;;;5053726;28;20025;-73
2021/01/24 04:55:55;;;;;;;7.55;2.92;;;4.50;91.40;;;;;;5052664;28;20051;-74
2021/01/24 04:58:21;;;;;;;9.75;3.67;;;4.50;91.30;;;;;;5053704;28;20466;-73
2021/01/24 05:00:47;;;;;;;7.82;3.38;;;4.50;91.40;;;;;;5053622;28;20064;-73
2021/01/24 05:03:14;;;;;;;7.50;3.33;;;4.50;91.30;;;;;;5052614;28;20025;-73
2021/01/24 05:05:40;;;;;;;9.27;3.30;;;4.50;91.30;;;;;;5035562;28;20549;-73
2021/01/24 05:08:08;;;;;;;9.00;2.80;;;4.60;91.30;;;;;;5052527;28;20052;-73
2021/01/24 05:10:34;;;;;;;8.45;3.33;;;4.60;91.30;;;;;;5053158;28;20021;-73
2021/01/24 05:13:00;;;;;;;9.20;2.60;;;4.60;91.30;;;;;;5034467;28;20337;-74
2021/01/24 05:15:27;;;;;;;9.00;3.15;;;4.60;91.20;;;;;;5035393;28;20057;-73
2021/01/24 05:18:00;;;;;;;8.00;3.08;;;4.70;91.20;;;;;;5053459;28;20082;-73
2021/01/24 05:20:27;;;;;;;8.77;3.28;;;4.70;91.20;;;;;;5053223;28;20043;-72
2021/01/24 05:22:55;;;;;;;9.05;3.05;;;4.60;91.10;;;;;;5052764;28;20066;-72
2021/01/24 05:25:23;;;;;;;8.30;3.22;;;4.60;91.20;;;;;;5034642;28;20407;-73
2021/01/24 05:27:49;;;;;;;7.60;2.70;;;4.60;91.20;;;;;;5035318;28;20068;-73
2021/01/24 05:30:38;;;;;;;8.18;2.88;;;4.60;91.30;;;;;;5052348;28;20468;-73
2021/01/24 05:33:03;;;;;;;14.38;3.20;;;4.60;91.20;;;;;;5052499;28;20477;-73
2021/01/24 05:35:29;;;;;;;7.30;3.50;;;4.50;91.20;;;;;;5052843;28;20021;-73
2021/01/24 05:37:55;;;;;;;7.72;3.20;;;4.60;91.30;;;;;;5052946;28;20393;-73
2021/01/24 05:40:20;;;;;;;9.32;2.85;;;4.50;91.20;;;;;;5052203;28;20099;-73
2021/01/24 05:42:46;;;;;;;8.63;3.33;;;4.50;91.20;;;;;;5052729;28;20029;-73
2021/01/24 05:45:16;;;;;;;8.90;3.50;;;4.60;91.20;;;;;;5052305;28;20033;-74
2021/01/24 05:47:44;;;;;;;6.68;2.45;;;4.50;91.20;;;;;;5052765;28;20024;-73
2021/01/24 05:50:17;;;;;;;6.63;2.85;;;4.60;91.20;;;;;;5034104;28;20393;-73
2021/01/24 05:52:48;;;;;;;7.65;2.33;;;4.60;91.10;;;;;;5034588;28;20108;-73
2021/01/24 05:55:33;;;;;;;6.10;2.47;;;4.60;91.20;;;;;;5051895;28;20104;-73
2021/01/24 05:58:13;;;;;;;6.40;2.50;;;4.60;91.20;;;;;;5052133;28;20295;-75
2021/01/24 06:00:42;;;;;;;9.60;2.88;;;4.50;91.20;;;;;;5034713;28;20108;-74
2021/01/24 06:03:08;;;;;;;8.38;2.78;;;4.50;91.40;;;;;;5051743;28;20029;-73
2021/01/24 06:05:35;;;;;;;6.80;2.80;;;4.50;91.20;;;;;;5052381;28;20142;-73
2021/01/24 06:08:00;;;;;;;9.65;2.65;;;4.50;91.20;;;;;;5051310;28;20025;-74
2021/01/24 06:10:26;;;;;;;4.90;2.30;;;4.50;91.20;;;;;;5052266;28;20464;-73
2021/01/24 06:12:53;;;;;;;7.00;2.65;;;4.50;91.20;;;;;;5052025;28;20036;-74
2021/01/24 06:15:23;;;;;;;9.45;2.88;;;4.50;91.20;;;;;;5033639;28;20012;-74
2021/01/24 06:17:50;;;;;;;6.00;2.05;;;4.50;91.30;;;;;;5051881;28;20033;-75
2021/01/24 06:20:18;;;;;;;5.13;2.33;;;4.50;91.30;;;;;;5051495;28;20025;-73
2021/01/24 06:23:07;;;;;;;6.70;1.80;;;4.50;91.20;;;;;;5051826;28;20385;-73
2021/01/24 06:25:37;;;;;;;8.77;2.35;;;4.50;91.20;;;;;;5052147;28;20025;-74
2021/01/24 06:28:23;;;;;;;5.05;2.00;;;4.50;91.20;;;;;;5051102;28;20017;-74
2021/01/24 06:30:50;;;;;;;5.97;2.00;;;4.50;91.10;;;;;;5047081;28;20505;-74
2021/01/24 06:33:20;;;;;;;4.47;2.08;;;4.50;91.10;;;;;;5050691;28;20029;-74
2021/01/24 06:36:01;;;;;;;5.35;2.20;;;4.50;91.20;;;;;;5033699;28;20047;-74
2021/01/24 06:38:41;;;;;;;4.50;1.83;;;4.50;91.10;;;;;;5052097;28;20086;-74
2021/01/24 06:41:09;;;;;;;3.60;1.85;;;4.50;91.20;;;;;;5051208;28;20226;-74
2021/01/24 06:43:44;;;;;;;2.88;1.58;;;4.50;91.10;;;;;;5051075;28;20032;-74
2021/01/24 06:46:19;;;;;;;5.10;1.80;;;4.60;91.10;;;;;;5051130;28;20025;-74
2021/01/24 06:48:47;;;;;;;2.53;1.13;;;4.60;91.00;;;;;;5033915;28;20032;-73
2021/01/24 06:51:31;;;;;;;3.95;1.92;;;4.60;91.00;;;;;;5051161;28;20469;-73
2021/01/24 06:53:58;;;;;;;6.60;1.90;;;4.60;91.00;;;;;;5051682;28;20036;-73
2021/01/24 06:56:26;;;;;;;4.65;1.92;;;4.60;91.00;;;;;;5050962;28;20032;-73
2021/01/24 06:58:52;;;;;;;5.80;2.15;;;4.60;91.00;;;;;;5033235;28;20074;-73
2021/01/24 07:01:25;;;;;;;3.17;2.05;;;4.70;90.90;;;;;;5033145;28;20041;-73
2021/01/24 07:04:23;;;;;;;4.80;1.67;;;4.70;90.90;;;;;;5051795;28;20104;-73
2021/01/24 07:07:11;;;;;;;1.98;1.17;;;4.70;90.70;;;;;;5051378;28;20021;-73
2021/01/24 07:09:43;;;;;;;4.15;1.50;;;4.80;90.70;;;;;;5051649;28;20025;-73
2021/01/24 07:12:10;;;;;;;3.47;1.65;;;4.80;90.70;;;;;;5051012;28;20044;-74
2021/01/24 07:14:38;;;;;;;5.07;1.67;;;4.80;90.70;;;;;;5033667;28;20111;-73
2021/01/24 07:17:07;;;;;;;2.97;1.50;;;4.80;90.70;;;;;;5051395;28;20055;-73
2021/01/24 07:19:53;;;;;;;2.70;1.60;;;4.80;90.80;;;;;;5033535;28;20025;-73
2021/01/24 07:22:24;;;;;;;2.97;1.50;;;4.80;90.70;;;;;;5051233;28;20032;-74
2021/01/24 07:24:51;;;;;;;1.90;1.40;;;4.80;90.70;;;;;;5051367;28;20142;-73
2021/01/24 07:27:19;;;;;;;4.47;2.08;;;4.80;90.70;;;;;;5050794;28;20029;-73
2021/01/24 07:29:45;;;;;;;4.15;1.88;;;4.80;90.70;;;;;;5051337;28;20075;-74
2021/01/24 07:32:11;;;;;;;3.15;1.60;;;4.70;90.80;;;;;;5050657;28;20025;-73
2021/01/24 07:34:37;;;;;;;4.70;1.77;;;4.70;90.80;;;;;;5033430;28;20089;-74
2021/01/24 07:37:05;;;;;;;2.38;1.30;;;4.60;90.90;;;;;;5050854;28;20489;-74
2021/01/24 07:39:32;;;;;;;4.57;2.08;;;4.70;90.90;;;;;;5050695;28;20524;-73
2021/01/24 07:41:59;;;;;;;4.30;2.15;;;4.70;90.90;;;;;;5051191;28;20025;-74
2021/01/24 07:44:24;;;;;;;4.35;1.83;;;4.60;90.90;;;;;;5032705;28;20028;-74
2021/01/24 07:46:50;;;;;;;4.13;1.85;;;4.60;90.90;;;;;;5051100;28;20033;-73
2021/01/24 07:49:17;;;;;;;2.75;1.40;;;4.60;90.90;;;;;;5032686;28;20029;-74
2021/01/24 07:51:43;;;;;;;6.43;1.77;;;4.50;90.90;;;;;;5051529;28;20057;-73
2021/01/24 07:54:10;;;;;;;3.42;1.48;;;4.60;91.00;;;;;;5050525;28;20044;-75
2021/01/24 07:56:36;;;;;;;3.72;1.60;;;4.60;91.00;;;;;;5053376;28;20055;-73
2021/01/24 07:59:02;;;;;;;5.47;1.95;;;4.60;90.90;;;;;;5054723;28;20025;-74
2021/01/24 08:01:28;;;;;;;6.05;2.78;;;4.60;90.90;;;;;;5036125;28;20431;-73
2021/01/24 08:03:54;;;;;;;5.35;2.30;;;4.50;90.90;;;;;;5054696;28;20021;-74
2021/01/24 08:06:20;;;;;;;4.18;1.90;;;4.50;90.90;;;;;;5053729;28;20060;-73
2021/01/24 08:08:46;;;;;;;5.22;1.67;;;4.50;90.90;;;;;;5054566;28;20078;-75
2021/01/24 08:11:13;;;;;;;4.47;1.75;;;4.50;90.90;;;;;;5053607;28;20037;-75
2021/01/24 08:13:41;;;;;;;3.53;1.73;;;4.50;90.90;;;;;;5054494;28;20108;-75
2021/01/24 08:16:20;;;;;;;4.18;2.03;;;4.50;90.90;;;;;;5036358;28;20029;-75
2021/01/24 08:18:50;;;;;;;4.10;1.80;;;4.50;90.90;;;;;;5054158;28;20104;-74
2021/01/24 08:21:16;;;;;;;3.72;1.73;;;4.50;91.00;;;;;;5035877;28;20051;-75
2021/01/24 08:23:48;;;;;;;6.15;2.75;;;4.50;91.00;;;;;;5036179;28;20021;-75
2021/01/24 08:26:14;;;;;;;5.20;2.40;;;4.50;91.00;;;;;;5053579;28;20031;-74
2021/01/24 08:28:42;;;;;;;4.40;2.17;;;4.40;91.10;;;;;;5036348;28;20083;-74
2021/01/24 08:31:08;;;;;;;2.00;1.63;;;4.40;91.10;;;;;;5054129;28;20226;-74
2021/01/24 08:33:34;;;;;;;1.75;1.42;;;4.50;91.10;;;;;;5035624;28;20133;-75
2021/01/24 08:36:11;;;;;;;5.30;1.75;;;4.50;91.00;;;;;;5053640;28;20021;-74
2021/01/24 08:38:37;;;;;;;4.28;1.83;;;4.60;90.90;;;;;;5054610;28;20060;-75
2021/01/24 08:41:04;;;;;;;5.20;2.20;;;4.60;90.90;;;;;;5054336;28;20044;-75
2021/01/24 08:43:29;;;;;;;3.28;2.10;;;4.50;90.90;;;;;;5053167;28;20025;-72
2021/01/24 08:46:17;;;;;;;3.42;1.48;;;4.50;90.90;;;;;;5054187;28;20372;-73
2021/01/24 08:48:43;;;;;;;3.85;2.40;;;4.50;91.00;;;;;;5054053;28;20028;-74
2021/01/24 08:51:09;;;;;;;6.38;1.92;;;4.40;91.00;;;;;;5053881;28;20025;-73
2021/01/24 08:53:34;;;;;;;4.50;1.83;;;4.40;91.00;;;;;;5053398;28;20025;-73
2021/01/24 08:56:00;;;;;;;5.93;1.95;;;4.40;91.10;;;;;;5053467;28;20029;-74
2021/01/24 08:58:28;;;;;;;3.90;1.98;;;4.30;91.10;;;;;;5035097;28;20029;-74
2021/01/24 09:01:09;;;;;;;2.63;1.42;;;4.40;91.10;;;;;;5035564;28;20047;-74
2021/01/24 09:03:35;;;;;;;5.05;1.88;;;4.40;91.10;;;;;;5035007;28;20017;-73
2021/01/24 09:06:19;;;;;;;5.13;1.60;;;4.30;91.10;;;;;;5053438;28;20396;-74
2021/01/24 09:08:52;;;;;;;3.38;1.45;;;4.40;91.10;;;;;;5035493;28;20490;-74
2021/01/24 09:11:18;;;;;;;4.30;1.67;;;4.40;91.10;;;;;;5052853;28;20038;-74
2021/01/24 09:13:44;;;;;;;2.78;1.42;;;4.40;91.00;;;;;;5053336;28;20021;-74
2021/01/24 09:16:10;;;;;;;4.40;1.70;;;4.30;91.00;;;;;;5053038;28;20346;-74
2021/01/24 09:18:35;;;;;;;3.33;1.65;;;4.30;91.10;;;;;;5034806;28;20162;-75
2021/01/24 09:21:03;;;;;;;1.90;1.60;;;4.30;91.10;;;;;;5035179;28;20017;-73
2021/01/24 09:23:29;;;;;;;4.25;1.65;;;4.30;91.10;;;;;;5052227;28;20100;-74
2021/01/24 09:25:55;;;;;;;2.45;1.38;;;4.30;91.10;;;;;;5053070;28;20032;-74
2021/01/24 09:28:20;;;;;;;3.17;1.58;;;4.30;91.10;;;;;;5052301;28;20029;-74
2021/01/24 09:30:46;;;;;;;4.10;1.80;;;4.30;91.10;;;;;;5052709;28;20048;-74
2021/01/24 09:33:12;;;;;;;2.25;1.42;;;4.40;91.10;;;;;;5052928;28;20078;-74
2021/01/24 09:35:38;;;;;;;1.75;1.35;;;4.40;91.00;;;;;;5052017;28;20025;-74
2021/01/24 09:38:04;;;;;;;3.88;1.90;;;4.40;91.00;;;;;;5061431;28;20254;-74
2021/01/24 09:40:29;;;;;;;3.40;1.60;;;4.40;91.00;;;;;;5072209;28;20132;-74
2021/01/24 09:42:55;;;;;;;2.65;1.30;;;4.40;91.00;;;;;;5072644;28;20016;-74
2021/01/24 09:45:21;;;;;;;1.38;1.20;;;4.40;91.00;;;;;;5070764;28;20023;-74
2021/01/24 09:47:46;;;;;;;1.92;1.23;;;4.40;91.00;;;;;;5071634;28;20555;-74
2021/01/24 09:50:12;;;;;;;4.22;1.80;;;4.40;90.90;;;;;;5072510;28;20036;-74
2021/01/24 09:52:38;;;;;;;2.85;1.70;;;4.40;91.00;;;;;;5070265;28;20060;-74
2021/01/24 09:55:04;;;;;;;3.00;1.40;;;4.40;90.90;;;;;;5071284;28;20059;-74
2021/01/24 09:57:29;;;;;;;2.10;1.20;;;4.40;90.90;;;;;;5071936;28;20031;-73
2021/01/24 09:59:55;;;;;;;2.20;1.33;;;4.40;90.90;;;;;;5072351;28;20028;-73
2021/01/24 10:02:21;;;;;;;3.30;2.05;;;4.50;90.90;;;;;;5053827;28;20025;-74
2021/01/24 10:04:46;;;;;;;1.48;1.00;;;4.50;90.90;;;;;;5072363;28;20056;-73
2021/01/24 10:07:12;;;;;;;2.40;1.35;;;4.50;90.90;;;;;;5072296;28;20032;-74
2021/01/24 10:09:37;;;;;;;3.70;1.23;;;4.50;90.80;;;;;;5071330;28;20107;-74
2021/01/24 10:12:03;;;;;;;2.28;1.23;;;4.50;90.80;;;;;;5072099;28;20453;-73
2021/01/24 10:14:29;;;;;;;2.78;1.30;;;4.60;90.90;;;;;;5071506;28;20028;-74
2021/01/24 10:16:55;;;;;;;2.25;1.20;;;4.60;90.80;;;;;;5070636;28;20329;-74
2021/01/24 10:19:21;;;;;;;1.20;1.02;;;4.60;90.80;;;;;;5070810;28;20108;-74
2021/01/24 10:21:46;;;;;;;2.97;1.40;;;4.70;90.80;;;;;;5072120;28;20032;-74
2021/01/24 10:24:12;;;;;;;2.05;1.05;;;4.70;90.80;;;;;;5072014;28;20020;-74
2021/01/24 10:26:37;;;;;;;6.32;1.27;;;4.70;90.80;;;;;;5071332;28;20036;-74
2021/01/24 10:29:04;;;;;;;1.83;1.35;;;4.70;90.80;;;;;;5072044;28;20029;-73
2021/01/24 10:31:29;;;;;;;2.97;1.55;;;4.80;90.70;;;;;;5069970;28;20024;-73
2021/01/24 10:33:56;;;;;;;3.97;1.30;;;4.80;90.70;;;;;;5071867;28;20027;-74
2021/01/24 10:36:21;;;;;;;3.80;1.42;;;4.80;90.70;;;;;;5069995;28;20112;-74
2021/01/24 10:38:49;;;;;;;3.22;1.30;;;4.90;90.70;;;;;;5051581;28;20069;-74
2021/01/24 10:41:15;;;;;;;1.80;1.20;;;4.90;90.70;;;;;;5051658;28;20109;-74
2021/01/24 10:43:40;;;;;;;2.10;1.38;;;5.00;90.60;;;;;;5033231;28;20441;-74
2021/01/24 10:46:06;;;;;;;2.28;1.15;;;5.00;90.60;;;;;;5052021;28;20410;-74
2021/01/24 10:48:32;;;;;;;3.55;1.42;;;5.10;90.50;;;;;;5051051;28;20060;-74
2021/01/24 10:50:58;;;;;;;2.17;1.00;;;5.20;90.40;;;;;;5051693;28;20104;-74
2021/01/24 10:53:23;;;;;;;3.17;1.50;;;5.20;90.40;;;;;;5032880;28;20413;-74
2021/01/24 10:55:49;;;;;;;4.72;1.60;;;5.20;90.40;;;;;;5051600;28;20449;-73
2021/01/24 10:58:15;;;;;;;2.70;1.45;;;5.30;90.20;;;;;;5033723;28;20028;-73
2021/01/24 11:00:40;;;;;;;2.45;1.42;;;5.40;90.20;;;;;;5050820;28;20101;-73
2021/01/24 11:03:06;;;;;;;1.67;1.10;;;5.40;90.00;;;;;;5051190;28;20021;-73
2021/01/24 11:05:35;;;;;;;2.05;1.17;;;5.50;89.90;;;;;;5050897;28;20479;-75
2021/01/24 11:08:01;;;;;;;1.65;1.20;;;5.50;89.80;;;;;;5051650;28;20100;-74
2021/01/24 11:10:26;;;;;;;1.27;0.90;;;5.60;89.60;;;;;;5050974;28;20060;-74
2021/01/24 11:12:53;;;;;;;2.13;1.23;;;5.70;89.40;;;;;;5051626;28;20021;-74
2021/01/24 11:15:18;;;;;;;1.65;1.05;;;5.70;89.30;;;;;;5051818;28;20104;-74
2021/01/24 11:17:44;;;;;;;1.92;1.17;;;5.90;89.10;;;;;;5050850;28;20112;-74
2021/01/24 11:20:10;;;;;;;2.05;1.00;;;6.00;88.80;;;;;;5051190;28;20354;-74
2021/01/24 11:22:37;;;;;;;1.88;1.23;;;6.10;88.30;;;;;;5050709;28;20464;-74
2021/01/24 11:25:04;;;;;;;2.33;1.13;;;6.30;87.10;;;;;;5033227;28;20032;-74
2021/01/24 11:27:29;;;;;;;3.55;1.10;;;6.40;86.90;;;;;;5050618;28;20456;-73
2021/01/24 11:29:55;;;;;;;2.75;1.02;;;6.40;86.30;;;;;;5053216;28;20029;-74
2021/01/24 11:32:22;;;;;;;2.55;0.90;;;6.50;86.00;;;;;;5055198;28;20029;-74
2021/01/24 11:34:47;;;;;;;1.60;0.90;;;6.50;85.30;;;;;;5036427;28;20040;-73
2021/01/24 11:37:13;;;;;;;1.80;1.00;;;6.60;85.50;;;;;;5049410;28;20128;-73
2021/01/24 11:39:38;;;;;;;3.13;1.00;;;6.60;85.80;;;;;;5074351;28;20029;-74
2021/01/24 11:42:04;;;;;;;1.00;0.90;;;6.60;86.10;;;;;;5073874;28;20364;-73
2021/01/24 11:44:30;;;;;;;1.13;1.00;;;6.70;86.20;;;;;;5074136;28;20124;-74
2021/01/24 11:46:56;;;;;;;0.90;0.90;;;6.80;86.20;;;;;;5074798;28;20063;-73
2021/01/24 11:49:22;;;;;;;4.95;0.90;;;7.00;86.30;;;;;;5073583;28;20031;-74
2021/01/24 11:51:48;;;;;;;1.10;0.82;;;7.00;86.00;;;;;;5073775;28;20029;-73
2021/01/24 11:54:14;;;;;;;1.05;0.90;;;7.10;86.10;;;;;;5074352;28;20023;-74
2021/01/24 11:56:40;;;;;;;0.93;0.82;;;7.20;85.30;;;;;;5073753;28;20033;-74
2021/01/24 11:59:06;;;;;;;3.40;0.95;;;7.10;84.20;;;;;;5074674;28;20025;-74
2021/01/24 12:01:32;;;;;;;2.40;0.85;;;7.10;84.30;;;;;;5072792;28;20028;-75
2021/01/24 12:03:59;;;;;;;5.78;0.90;;;7.10;84.10;;;;;;5074799;28;20021;-74
2021/01/24 12:06:25;;;;;;;0.60;0.60;;;7.20;84.30;;;;;;5074483;28;20025;-74
2021/01/24 12:08:50;;;;;;;1.55;1.17;;;7.20;84.10;;;;;;5072621;28;20471;-74
2021/01/24 12:11:16;;;;;;;2.97;0.90;;;7.30;84.20;;;;;;5074377;28;20029;-74
2021/01/24 12:13:42;;;;;;;1.65;0.80;;;7.40;83.80;;;;;;5072394;28;20024;-74
2021/01/24 12:16:07;;;;;;;1.20;1.10;;;7.50;83.20;;;;;;5066164;28;20502;-73
2021/01/24 12:18:33;;;;;;;3.72;1.08;;;7.50;83.00;;;;;;5073363;28;20042;-74
2021/01/24 12:20:58;;;;;;;1.05;0.95;;;7.50;82.40;;;;;;5073859;28;20495;-73
2021/01/24 12:23:24;;;;;;;1.77;0.80;;;7.50;82.40;;;;;;5065622;28;20016;-73
2021/01/24 12:25:50;;;;;;;1.58;1.08;;;7.50;82.40;;;;;;5061906;28;20434;-73
2021/01/24 12:28:15;;;;;;;1.30;1.20;;;7.50;82.70;;;;;;5062834;28;20020;-73
2021/01/24 12:30:41;;;;;;;1.65;0.93;;;7.50;82.50;;;;;;5064218;28;20048;-73
2021/01/24 12:33:11;;;;;;;0.98;0.70;;;7.50;82.60;;;;;;5058693;28;20096;-73
2021/01/24 12:35:38;;;;;;;0.95;0.95;;;7.60;82.40;;;;;;5051084;28;20032;-75
2021/01/24 12:38:04;;;;;;;3.67;1.23;;;7.70;82.10;;;;;;5040934;28;20056;-74
2021/01/24 12:40:30;;;;;;;2.05;1.70;;;7.80;81.30;;;;;;5033041;28;20037;-75
2021/01/24 12:42:55;;;;;;;1.95;1.13;;;8.00;81.10;;;;;;5015803;28;20369;-74
2021/01/24 12:45:21;;;;;;;1.75;1.30;;;8.10;80.90;;;;;;5033690;28;20025;-74
2021/01/24 12:47:47;;;;;;;2.22;1.02;;;8.10;79.70;;;;;;5032992;28;20030;-73
2021/01/24 12:50:12;;;;;;;2.88;1.48;;;8.10;80.20;;;;;;5033592;28;20038;-73
2021/01/24 12:52:38;;;;;;;2.50;1.13;;;8.10;80.00;;;;;;5015370;28;20391;-74
2021/01/24 12:55:04;;;;;;;2.42;1.17;;;8.10;79.20;;;;;;5015759;28;20027;-74
2021/01/24 12:57:30;;;;;;;2.92;1.35;;;8.00;78.90;;;;;;5033365;28;20026;-74